createdAt,value
2018-07-25T00:00:41.186Z,94049.00
2018-07-25T00:03:12.480Z,94046.00
2018-07-25T00:05:44.350Z,94049.00
2018-07-25T00:08:16.048Z,94040.00
2018-07-25T00:10:49.991Z,94043.00
2018-07-25T00:13:22.197Z,94044.00
2018-07-25T00:15:54.083Z,94043.00
2018-07-25T00:18:25.159Z,94041.00
2018-07-25T00:20:58.095Z,94044.00
2018-07-25T00:23:30.067Z,94039.00
2018-07-25T00:26:02.457Z,94040.00
2018-07-25T00:28:34.296Z,94037.00
2018-07-25T00:31:06.211Z,94035.00
2018-07-25T00:33:38.209Z,94042.00
2018-07-25T00:36:10.393Z,94043.00
2018-07-25T00:38:41.510Z,94039.00
2018-07-25T00:41:13.425Z,94040.00
2018-07-25T00:43:45.544Z,94040.00
2018-07-25T00:46:17.964Z,94040.00
2018-07-25T00:48:49.997Z,94044.00
2018-07-25T00:51:21.997Z,94047.00
2018-07-25T00:53:54.103Z,94047.00
2018-07-25T00:56:26.234Z,94048.00
2018-07-25T00:58:57.466Z,94042.00
2018-07-25T01:01:29.385Z,94040.00
2018-07-25T01:04:01.288Z,94047.00
2018-07-25T01:06:33.395Z,94046.00
2018-07-25T01:09:06.916Z,94042.00
2018-07-25T01:11:38.505Z,94043.00
2018-07-25T01:14:10.326Z,94048.00
2018-07-25T01:16:42.331Z,94044.00
2018-07-25T01:19:14.130Z,94043.00
2018-07-25T01:21:47.458Z,94043.00
2018-07-25T01:24:18.889Z,94040.00
2018-07-25T01:26:50.833Z,94037.00
2018-07-25T01:29:22.924Z,94040.00
2018-07-25T01:31:54.696Z,94032.00
2018-07-25T01:34:26.627Z,94034.00
2018-07-25T01:36:58.661Z,94044.00
2018-07-25T01:39:31.142Z,94043.00
2018-07-25T01:42:02.908Z,94043.00
2018-07-25T01:44:34.935Z,94037.00
2018-07-25T01:47:06.925Z,94040.00
2018-07-25T01:49:39.283Z,94043.00
2018-07-25T01:52:11.458Z,94041.00
2018-07-25T01:54:43.271Z,94044.00
2018-07-25T01:57:15.100Z,94039.00
2018-07-25T01:59:47.206Z,94037.00
2018-07-25T02:02:19.063Z,94037.00
2018-07-25T02:04:50.954Z,94040.00
2018-07-25T02:07:22.841Z,94042.00
2018-07-25T02:09:55.191Z,94042.00
2018-07-25T02:12:26.848Z,94040.00
2018-07-25T02:14:58.331Z,94031.00
2018-07-25T02:17:30.304Z,94045.00
2018-07-25T02:20:01.462Z,94044.00
2018-07-25T02:22:33.600Z,94045.00
2018-07-25T02:25:05.520Z,94038.00
2018-07-25T02:27:37.657Z,94045.00
2018-07-25T02:30:09.634Z,94049.00
2018-07-25T02:32:41.262Z,94047.00
2018-07-25T02:35:14.162Z,94048.00
2018-07-25T02:37:46.546Z,94053.00
2018-07-25T02:40:18.870Z,94051.00
2018-07-25T02:42:50.956Z,94047.00
2018-07-25T02:45:22.808Z,94049.00
2018-07-25T02:47:54.842Z,94047.00
2018-07-25T02:50:26.682Z,94050.00
2018-07-25T02:52:58.492Z,94055.00
2018-07-25T02:55:29.624Z,94053.00
2018-07-25T02:58:02.321Z,94050.00
2018-07-25T03:00:34.499Z,94052.00
2018-07-25T03:03:06.182Z,94065.00
2018-07-25T03:05:39.666Z,94058.00
2018-07-25T03:08:11.441Z,94059.00
2018-07-25T03:10:49.329Z,94059.00
2018-07-25T03:13:21.145Z,94060.00
2018-07-25T03:16:08.833Z,94057.00
2018-07-25T03:18:41.458Z,94057.00
2018-07-25T03:21:13.394Z,94066.00
2018-07-25T03:23:45.135Z,94064.00
2018-07-25T03:26:16.984Z,94073.00
2018-07-25T03:28:49.231Z,94072.00
2018-07-25T03:31:21.787Z,94074.00
2018-07-25T03:33:53.643Z,94083.00
2018-07-25T03:36:25.724Z,94083.00
2018-07-25T03:38:58.509Z,94080.00
2018-07-25T03:41:30.615Z,94076.00
2018-07-25T03:44:02.739Z,94088.00
2018-07-25T03:46:34.484Z,94091.00
2018-07-25T03:49:06.467Z,94090.00
2018-07-25T03:51:38.901Z,94090.00
2018-07-25T03:54:10.681Z,94093.00
2018-07-25T03:56:42.848Z,94096.00
2018-07-25T03:59:14.961Z,94096.00
2018-07-25T04:01:46.950Z,94097.00
2018-07-25T04:04:19.124Z,94096.00
2018-07-25T04:06:52.029Z,94099.00
2018-07-25T04:09:23.948Z,94096.00
2018-07-25T04:11:55.828Z,94100.00
2018-07-25T04:14:28.159Z,94100.00
2018-07-25T04:17:00.275Z,94098.00
2018-07-25T04:19:32.531Z,94101.00
2018-07-25T04:22:04.858Z,94103.00
2018-07-25T04:24:37.195Z,94109.00
2018-07-25T04:27:09.484Z,94118.00
2018-07-25T04:29:41.894Z,94118.00
2018-07-25T04:32:14.524Z,94116.00
2018-07-25T04:34:46.460Z,94115.00
2018-07-25T04:37:18.653Z,94115.00
2018-07-25T04:39:51.226Z,94120.00
2018-07-25T04:42:24.952Z,94119.00
2018-07-25T04:44:56.340Z,94123.00
2018-07-25T04:47:28.032Z,94122.00
2018-07-25T04:49:59.353Z,94125.00
2018-07-25T04:52:30.832Z,94130.00
2018-07-25T04:55:02.833Z,94134.00
2018-07-25T04:57:35.142Z,94138.00
2018-07-25T05:00:07.338Z,94144.00
2018-07-25T05:02:38.873Z,94146.00
2018-07-25T05:05:11.223Z,94148.00
2018-07-25T05:07:43.114Z,94146.00
2018-07-25T05:10:14.610Z,94147.00
2018-07-25T05:12:46.623Z,94135.00
2018-07-25T05:15:18.975Z,94142.00
2018-07-25T05:17:50.761Z,94138.00
2018-07-25T05:20:23.188Z,94135.00
2018-07-25T05:22:55.197Z,94130.00
2018-07-25T05:25:27.351Z,94132.00
2018-07-25T05:27:59.539Z,94131.00
2018-07-25T05:30:31.720Z,94131.00
2018-07-25T05:33:04.221Z,94125.00
2018-07-25T05:35:36.126Z,94124.00
2018-07-25T05:38:08.504Z,94127.00
2018-07-25T05:40:40.875Z,94126.00
2018-07-25T05:43:12.763Z,94126.00
2018-07-25T05:45:44.994Z,94127.00
2018-07-25T05:48:17.056Z,94130.00
2018-07-25T05:50:50.521Z,94134.00
2018-07-25T05:53:22.482Z,94135.00
2018-07-25T05:55:54.910Z,94136.00
2018-07-25T05:58:27.159Z,94139.00
2018-07-25T06:00:59.393Z,94136.00
2018-07-25T06:03:31.704Z,94139.00
2018-07-25T06:06:03.901Z,94145.00
2018-07-25T06:08:35.697Z,94149.00
2018-07-25T06:11:08.213Z,94151.00
2018-07-25T06:13:40.037Z,94155.00
2018-07-25T06:16:12.456Z,94154.00
2018-07-25T06:18:44.543Z,94160.00
2018-07-25T06:21:17.212Z,94161.00
2018-07-25T06:23:49.842Z,94169.00
2018-07-25T06:26:21.099Z,94168.00
2018-07-25T06:28:52.861Z,94166.00
2018-07-25T06:31:25.117Z,94167.00
2018-07-25T06:33:56.871Z,94162.00
2018-07-25T06:36:29.318Z,94160.00
2018-07-25T06:39:01.616Z,94159.00
2018-07-25T06:41:34.094Z,94161.00
2018-07-25T06:44:05.970Z,94161.00
2018-07-25T06:46:38.215Z,94160.00
2018-07-25T06:49:10.385Z,94161.00
2018-07-25T06:51:42.459Z,94157.00
2018-07-25T06:54:14.253Z,94158.00
2018-07-25T06:56:46.380Z,94159.00
2018-07-25T06:59:18.164Z,94156.00
2018-07-25T07:01:50.132Z,94158.00
2018-07-25T07:04:22.515Z,94163.00
2018-07-25T07:06:54.855Z,94165.00
2018-07-25T07:09:26.422Z,94167.00
2018-07-25T07:11:58.591Z,94174.00
2018-07-25T07:14:30.940Z,94178.00
2018-07-25T07:17:03.066Z,94179.00
2018-07-25T07:19:35.123Z,94187.00
2018-07-25T07:22:07.290Z,94191.00
2018-07-25T07:24:38.769Z,94183.00
2018-07-25T07:27:10.569Z,94189.00
2018-07-25T07:29:42.562Z,94182.00
2018-07-25T07:32:14.962Z,94186.00
2018-07-25T07:34:47.264Z,94192.00
2018-07-25T07:37:20.327Z,94195.00
2018-07-25T07:39:52.707Z,94188.00
2018-07-25T07:42:24.842Z,94195.00
2018-07-25T07:44:57.229Z,94192.00
2018-07-25T07:47:29.655Z,94198.00
2018-07-25T07:50:02.157Z,94197.00
2018-07-25T07:52:34.645Z,94192.00
2018-07-25T07:55:06.755Z,94186.00
2018-07-25T07:57:38.957Z,94192.00
2018-07-25T08:00:11.458Z,94191.00
2018-07-25T08:02:43.638Z,94186.00
2018-07-25T08:05:15.737Z,94184.00
2018-07-25T08:07:48.060Z,94184.00
2018-07-25T08:10:19.616Z,94189.00
2018-07-25T08:12:52.223Z,94192.00
2018-07-25T08:15:24.673Z,94194.00
2018-07-25T08:17:57.010Z,94194.00
2018-07-25T08:20:29.158Z,94199.00
2018-07-25T08:23:01.277Z,94202.00
2018-07-25T08:25:33.837Z,94199.00
2018-07-25T08:28:05.954Z,94198.00
2018-07-25T08:30:38.353Z,94193.00
2018-07-25T08:33:10.719Z,94193.00
2018-07-25T08:35:43.147Z,94196.00
2018-07-25T08:38:15.561Z,94200.00
2018-07-25T08:40:47.654Z,94201.00
2018-07-25T08:43:21.263Z,94202.00
2018-07-25T08:45:53.519Z,94195.00
2018-07-25T08:48:25.518Z,94201.00
2018-07-25T08:50:57.641Z,94195.00
2018-07-25T08:53:29.535Z,94197.00
2018-07-25T08:56:01.864Z,94197.00
2018-07-25T08:58:33.584Z,94196.00
2018-07-25T09:01:05.496Z,94184.00
2018-07-25T09:03:37.539Z,94188.00
2018-07-25T09:06:09.717Z,94186.00
2018-07-25T09:08:42.436Z,94186.00
2018-07-25T09:11:14.534Z,94179.00
2018-07-25T09:13:46.375Z,94181.00
2018-07-25T09:16:18.742Z,94184.00
2018-07-25T09:18:51.134Z,94177.00
2018-07-25T09:21:22.726Z,94179.00
2018-07-25T09:23:54.579Z,94174.00
2018-07-25T09:26:27.330Z,94176.00
2018-07-25T09:29:00.076Z,94170.00
2018-07-25T09:31:32.396Z,94170.00
2018-07-25T09:34:05.643Z,94171.00
2018-07-25T09:36:37.868Z,94174.00
2018-07-25T09:39:12.873Z,94181.00
2018-07-25T09:41:45.629Z,94183.00
2018-07-25T09:44:17.862Z,94181.00
2018-07-25T09:46:50.728Z,94178.00
2018-07-25T09:49:23.581Z,94175.00
2018-07-25T09:51:55.831Z,94171.00
2018-07-25T09:54:28.033Z,94167.00
2018-07-25T09:56:59.500Z,94164.00
2018-07-25T09:59:31.523Z,94166.00
2018-07-25T10:02:03.770Z,94162.00
2018-07-25T10:04:36.125Z,94162.00
2018-07-25T10:07:08.240Z,94152.00
2018-07-25T10:09:40.543Z,94145.00
2018-07-25T10:12:12.702Z,94142.00
2018-07-25T10:14:44.969Z,94144.00
2018-07-25T10:17:17.212Z,94151.00
2018-07-25T10:19:50.048Z,94152.00
2018-07-25T10:22:22.598Z,94141.00
2018-07-25T10:24:54.792Z,94143.00
2018-07-25T10:27:27.845Z,94146.00
2018-07-25T10:30:00.294Z,94148.00
2018-07-25T10:32:32.867Z,94151.00
2018-07-25T10:35:05.585Z,94159.00
2018-07-25T10:37:38.424Z,94165.00
2018-07-25T10:40:10.203Z,94180.00
2018-07-25T10:42:42.397Z,94177.00
2018-07-25T10:45:14.746Z,94177.00
2018-07-25T10:47:46.655Z,94173.00
2018-07-25T10:50:18.946Z,94171.00
2018-07-25T10:52:51.261Z,94163.00
2018-07-25T10:55:23.639Z,94162.00
2018-07-25T10:57:55.746Z,94160.00
2018-07-25T11:00:27.823Z,94163.00
2018-07-25T11:02:59.634Z,94163.00
2018-07-25T11:05:31.590Z,94164.00
2018-07-25T11:08:03.092Z,94163.00
2018-07-25T11:10:35.214Z,94161.00
2018-07-25T11:13:07.550Z,94161.00
2018-07-25T11:15:40.776Z,94162.00
2018-07-25T11:18:13.485Z,94166.00
2018-07-25T11:20:46.380Z,94166.00
2018-07-25T11:23:18.332Z,94167.00
2018-07-25T11:25:50.105Z,94169.00
2018-07-25T11:28:21.858Z,94177.00
2018-07-25T11:30:54.421Z,94169.00
2018-07-25T11:33:26.711Z,94168.00
2018-07-25T11:35:58.907Z,94167.00
2018-07-25T11:38:30.983Z,94169.00
2018-07-25T11:41:03.566Z,94171.00
2018-07-25T11:43:35.647Z,94168.00
2018-07-25T11:46:07.720Z,94164.00
2018-07-25T11:48:40.706Z,94162.00
2018-07-25T11:51:12.955Z,94165.00
2018-07-25T11:53:45.107Z,94159.00
2018-07-25T11:56:17.494Z,94162.00
2018-07-25T11:58:49.612Z,94160.00
2018-07-25T12:01:22.699Z,94155.00
2018-07-25T12:03:55.809Z,94154.00
2018-07-25T12:06:27.902Z,94146.00
2018-07-25T12:08:59.938Z,94141.00
2018-07-25T12:11:32.026Z,94140.00
